Time;durP1;ratioP1;P1;durP2;ratioP2;P2;SDS_P1;SDS_P2;PMS_P1;PMS_P2;Temp;Humidity;BMP_temperature;BMP_pressure;BME280_temperature;BME280_humidity;BME280_pressure;Samples;Min_cycle;Max_cycle;Signal;HPM_P1;HPM_P2
2022/08/11 00:01:25;;;;;;;3.63;1.80;;;20.40;55.50;;;;;;5030009;28;20084;-90
2022/08/11 00:03:56;;;;;;;4.60;2.13;;;20.40;54.70;;;;;;5015242;28;20029;-89
2022/08/11 00:06:26;;;;;;;2.70;1.65;;;20.30;55.50;;;;;;5034336;28;20482;-89
2022/08/11 00:08:52;;;;;;;5.43;1.92;;;20.40;53.90;;;;;;5030846;28;20049;-89
2022/08/11 00:11:20;;;;;;;3.78;2.90;;;20.30;54.10;;;;;;5016429;28;20551;-89
2022/08/11 00:13:47;;;;;;;6.38;2.20;;;20.20;59.10;;;;;;4999275;28;20030;-88
2022/08/11 00:16:15;;;;;;;5.60;2.33;;;20.00;58.20;;;;;;5002956;28;20038;-88
2022/08/11 00:18:45;;;;;;;3.10;1.98;;;19.90;58.70;;;;;;5007428;28;20599;-92
2022/08/11 00:21:11;;;;;;;5.10;2.40;;;19.80;59.10;;;;;;4991701;28;20096;-92
2022/08/11 00:23:57;;;;;;;7.10;2.08;;;19.70;59.60;;;;;;4992860;28;20058;-89
2022/08/11 00:26:25;;;;;;;3.75;2.30;;;19.60;60.00;;;;;;5030113;28;20030;-90
2022/08/11 00:28:51;;;;;;;5.30;1.80;;;19.50;58.50;;;;;;5012988;28;20045;-88
2022/08/11 00:31:26;;;;;;;7.13;2.22;;;19.70;56.60;;;;;;5031598;28;20116;-91
2022/08/11 00:33:51;;;;;;;5.55;2.45;;;19.70;56.50;;;;;;4998728;28;20029;-91
2022/08/11 00:36:18;;;;;;;3.38;2.22;;;19.60;57.20;;;;;;5020296;28;20099;-90
2022/08/11 00:38:44;;;;;;;6.50;2.60;;;19.40;58.80;;;;;;5015151;28;20037;-89
2022/08/11 00:41:30;;;;;;;6.45;2.00;;;19.20;59.30;;;;;;4994801;28;20113;-90
2022/08/11 00:44:25;;;;;;;6.07;2.92;;;19.20;59.30;;;;;;4990936;28;20029;-90
2022/08/11 00:47:15;;;;;;;4.40;2.17;;;19.10;60.50;;;;;;5022349;28;20536;-90
2022/08/11 00:50:02;;;;;;;5.18;2.25;;;19.00;61.60;;;;;;5005578;28;20046;-90
2022/08/11 00:52:38;;;;;;;;;;;19.00;59.80;;;;;;5008892;28;20042;-89
2022/08/11 00:55:44;;;;;;;2.88;2.20;;;18.90;62.80;;;;;;5015782;28;19944;-91
2022/08/11 00:58:26;;;;;;;2.35;2.15;;;18.90;62.00;;;;;;5020263;28;20026;-90
2022/08/11 01:01:16;;;;;;;6.38;2.03;;;19.00;56.70;;;;;;5026895;28;20033;-90
2022/08/11 01:04:15;;;;;;;6.63;2.65;;;19.10;56.30;;;;;;5024157;28;20031;-89
2022/08/11 01:07:06;;;;;;;3.40;2.30;;;19.00;55.90;;;;;;5027463;28;20064;-91
2022/08/11 01:09:53;;;;;;;6.63;2.17;;;19.10;55.60;;;;;;5005401;28;20040;-90
2022/08/11 01:12:30;;;;;;;;;;;19.00;55.50;;;;;;5007159;28;20091;-89
2022/08/11 01:15:13;;;;;;;3.63;1.95;;;19.00;55.70;;;;;;5000544;28;19963;-90
2022/08/11 01:18:08;;;;;;;3.67;2.45;;;18.90;56.50;;;;;;5035618;28;20088;-90
2022/08/11 01:21:11;;;;;;;3.72;2.65;;;18.60;59.40;;;;;;5008652;28;20500;-89
2022/08/11 01:23:58;;;;;;;3.75;2.75;;;18.50;61.50;;;;;;5029386;28;20034;-89
2022/08/11 01:27:14;;;;;;;6.88;2.55;;;18.60;60.30;;;;;;5046735;28;20025;-90
2022/08/11 01:30:09;;;;;;;5.47;2.78;;;18.50;57.70;;;;;;4957275;28;20094;-90
2022/08/11 01:33:05;;;;;;;8.00;2.30;;;18.60;60.40;;;;;;4952526;28;20065;-91
2022/08/11 01:35:49;;;;;;;7.30;3.92;;;18.20;65.00;;;;;;5010740;28;20028;-89
2022/08/11 01:38:52;;;;;;;4.20;3.08;;;18.10;64.90;;;;;;5025078;28;20078;-90
2022/08/11 01:45:07;;;;;;;4.90;2.45;;;17.90;64.40;;;;;;4994313;28;20036;-89
2022/08/11 01:47:52;;;;;;;4.47;2.63;;;17.90;64.10;;;;;;5044654;28;20033;-92
2022/08/11 01:50:29;;;;;;;5.38;2.63;;;18.00;64.70;;;;;;5027021;28;20456;-88
2022/08/11 01:53:03;;;;;;;4.00;2.75;;;17.80;67.50;;;;;;5027259;28;20121;-89
2022/08/11 01:56:07;;;;;;;3.45;2.92;;;17.90;61.90;;;;;;5022155;28;20456;-90
2022/08/11 01:58:44;;;;;;;5.95;3.00;;;18.00;58.70;;;;;;5014829;28;20041;-90
2022/08/11 02:01:22;;;;;;;3.83;2.85;;;18.00;59.70;;;;;;5018748;28;20025;-89
2022/08/11 02:04:07;;;;;;;8.02;2.70;;;17.90;61.10;;;;;;5018865;28;20481;-89
2022/08/11 02:06:57;;;;;;;4.03;3.47;;;17.80;61.90;;;;;;4987542;28;20105;-89
2022/08/11 02:09:40;;;;;;;6.38;3.35;;;17.80;59.10;;;;;;5035687;28;20025;-89
2022/08/11 02:12:15;;;;;;;8.35;3.42;;;17.80;62.30;;;;;;5031537;28;20109;-89
2022/08/11 02:14:53;;;;;;;5.10;3.50;;;17.60;67.60;;;;;;5031301;28;20094;-90
2022/08/11 02:17:38;;;;;;;5.80;3.10;;;17.40;68.20;;;;;;5052444;28;20044;-91
2022/08/11 02:25:51;;;;;;;6.28;3.30;;;17.50;60.90;;;;;;5038301;28;20020;-91
2022/08/11 04:03:19;;;;;;;7.13;4.40;;;15.70;70.80;;;;;;4977103;28;20512;-90
2022/08/11 04:06:08;;;;;;;7.22;4.15;;;15.60;73.50;;;;;;5031082;28;20568;-89
2022/08/11 04:08:48;;;;;;;9.23;5.35;;;15.70;73.50;;;;;;5030736;28;20029;-90
2022/08/11 04:11:38;;;;;;;5.97;4.25;;;15.70;77.20;;;;;;5004813;28;20040;-90
2022/08/11 04:17:59;;;;;;;7.78;4.30;;;15.60;77.70;;;;;;5020478;28;20049;-91
2022/08/11 04:21:02;;;;;;;8.13;4.70;;;15.60;77.30;;;;;;5030246;28;20086;-90
2022/08/11 04:23:52;;;;;;;5.78;4.05;;;15.60;77.00;;;;;;5011657;28;20523;-91
2022/08/11 04:26:39;;;;;;;8.57;4.75;;;15.70;76.40;;;;;;5034762;28;20029;-89
2022/08/11 04:29:32;;;;;;;5.20;4.13;;;15.60;79.60;;;;;;5049337;28;20135;-89
2022/08/11 04:32:25;;;;;;;9.30;4.82;;;15.40;77.80;;;;;;5033988;28;20378;-90
2022/08/11 04:35:20;;;;;;;8.45;4.30;;;15.50;79.10;;;;;;5027677;28;20041;-89
2022/08/11 04:37:57;;;;;;;7.72;4.13;;;15.60;83.10;;;;;;5000222;28;20543;-88
2022/08/11 04:40:47;;;;;;;8.23;4.07;;;15.60;80.10;;;;;;5022690;28;20025;-89
2022/08/11 04:43:51;;;;;;;8.45;4.78;;;15.60;82.60;;;;;;5001727;28;20040;-89
2022/08/11 04:46:35;;;;;;;8.15;4.78;;;15.60;84.20;;;;;;5019773;28;20104;-89
2022/08/11 05:02:08;;;;;;;8.50;5.47;;;16.10;82.20;;;;;;5015218;28;20220;-92
2022/08/11 05:07:47;;;;;;;8.82;4.85;;;16.30;78.00;;;;;;5034625;28;20092;-88
2022/08/11 05:10:41;;;;;;;9.65;4.78;;;16.40;79.30;;;;;;5017986;28;20030;-88
2022/08/11 05:35:44;;;;;;;5.50;4.60;;;17.70;74.50;;;;;;4982246;28;20795;-88
2022/08/11 05:58:40;;;;;;;6.93;3.63;;;18.90;75.50;;;;;;5021688;28;20075;-89
2022/08/11 06:01:06;;;;;;;9.90;4.85;;;19.10;73.30;;;;;;5053219;28;20026;-90
2022/08/11 06:04:12;;;;;;;12.60;4.72;;;19.30;73.90;;;;;;5018748;28;20042;-88
2022/08/11 06:06:22;;;;;;;9.55;4.30;;;19.40;73.30;;;;;;5042749;28;20037;-89
2022/08/11 06:08:48;;;;;;;6.25;4.40;;;19.60;74.10;;;;;;5032552;28;20080;-91
2022/08/11 06:11:14;;;;;;;6.28;4.00;;;19.70;74.20;;;;;;5032098;28;20021;-89
2022/08/11 06:13:43;;;;;;;7.32;4.05;;;19.80;74.50;;;;;;5037679;28;20045;-91
2022/08/11 06:16:10;;;;;;;7.65;4.32;;;20.00;73.30;;;;;;5036506;28;20025;-91
2022/08/11 06:18:36;;;;;;;3.60;2.85;;;20.20;72.90;;;;;;5035387;28;20037;-91
2022/08/11 06:21:01;;;;;;;6.47;3.65;;;20.40;70.60;;;;;;5034171;28;20019;-91
2022/08/11 06:23:31;;;;;;;7.65;3.78;;;20.50;70.40;;;;;;5022149;28;20026;-90
2022/08/11 06:25:57;;;;;;;3.75;2.85;;;20.70;71.50;;;;;;5007125;28;20081;-90
2022/08/11 06:28:34;;;;;;;4.18;3.38;;;20.90;71.10;;;;;;5036734;28;20085;-90
2022/08/11 06:31:12;;;;;;;6.63;3.88;;;21.00;68.80;;;;;;5019727;28;20026;-91
2022/08/11 06:33:47;;;;;;;10.13;4.03;;;21.20;71.20;;;;;;5032443;28;20034;-90
2022/08/11 06:36:18;;;;;;;6.45;3.60;;;21.30;70.90;;;;;;5036656;28;20037;-90
2022/08/11 06:39:09;;;;;;;11.38;4.03;;;21.40;70.00;;;;;;5035147;28;20059;-90
2022/08/11 06:42:40;;;;;;;3.72;3.30;;;21.70;69.70;;;;;;5064648;28;20040;-89
2022/08/11 06:45:12;;;;;;;7.05;4.13;;;21.90;69.60;;;;;;4914238;28;20040;-90
2022/08/11 06:47:42;;;;;;;7.05;3.70;;;22.00;69.10;;;;;;4936498;28;20070;-90
2022/08/11 06:52:53;;;;;;;8.18;3.97;;;22.30;68.60;;;;;;5016495;28;20095;-90
2022/08/11 07:01:31;;;;;;;5.28;3.72;;;22.80;67.50;;;;;;5031166;28;20044;-90
2022/08/11 07:04:05;;;;;;;4.90;3.20;;;23.00;67.80;;;;;;5034314;28;20551;-91
2022/08/11 07:16:13;;;;;;;7.25;3.63;;;23.80;65.70;;;;;;5001789;28;20057;-89
2022/08/11 07:30:03;;;;;;;6.07;3.60;;;24.70;64.40;;;;;;5034667;28;20056;-89
2022/08/11 07:32:59;;;;;;;10.30;3.78;;;24.80;63.50;;;;;;5027720;28;20048;-90
2022/08/11 07:35:32;;;;;;;5.57;2.90;;;25.10;61.90;;;;;;5015618;28;20122;-89
2022/08/11 07:38:04;;;;;;;6.40;2.90;;;25.10;63.10;;;;;;5023742;28;20075;-91
2022/08/11 07:40:31;;;;;;;8.68;3.47;;;25.40;62.20;;;;;;5000306;28;20029;-90
2022/08/11 07:43:05;;;;;;;5.45;3.60;;;25.60;61.80;;;;;;5027450;28;20099;-90
2022/08/11 07:53:46;;;;;;;3.45;3.15;;;26.10;59.40;;;;;;5029423;28;20080;-89
2022/08/11 07:56:15;;;;;;;6.45;3.13;;;26.30;59.30;;;;;;5013878;28;20037;-90
2022/08/11 08:18:17;;;;;;;8.05;2.92;;;27.60;57.90;;;;;;5032863;28;20511;-90
2022/08/11 08:20:48;;;;;;;4.13;3.13;;;27.80;56.40;;;;;;5018841;28;20029;-89
2022/08/11 08:23:31;;;;;;;3.58;2.65;;;28.00;55.70;;;;;;5027916;28;20033;-88
2022/08/11 08:26:01;;;;;;;5.25;2.78;;;28.00;55.30;;;;;;5018346;28;20035;-88
2022/08/11 08:28:28;;;;;;;6.22;3.35;;;28.10;56.00;;;;;;4998189;28;20552;-88
2022/08/11 08:30:55;;;;;;;4.63;2.90;;;28.30;56.30;;;;;;5014155;28;20132;-88
2022/08/11 08:33:24;;;;;;;3.00;2.67;;;28.40;56.30;;;;;;5010675;28;20040;-90
2022/08/11 08:36:10;;;;;;;6.93;3.10;;;28.50;55.90;;;;;;5016978;28;20049;-88
2022/08/11 08:38:38;;;;;;;;;;;28.80;55.00;;;;;;5032271;28;20034;-88
2022/08/11 08:41:06;;;;;;;8.15;2.95;;;28.90;55.40;;;;;;5007988;28;19963;-88
2022/08/11 08:43:31;;;;;;;8.15;3.60;;;29.10;54.80;;;;;;5012515;28;20112;-89
2022/08/11 08:45:57;;;;;;;8.45;2.92;;;29.30;53.80;;;;;;5032490;28;20545;-90
2022/08/11 08:48:27;;;;;;;4.40;2.90;;;29.50;52.80;;;;;;5012484;28;20030;-89
2022/08/11 08:53:52;;;;;;;8.32;3.33;;;29.70;52.30;;;;;;5029785;28;20107;-89
2022/08/11 08:56:17;;;;;;;4.50;3.15;;;29.90;52.10;;;;;;5006913;28;20036;-89
2022/08/11 08:58:45;;;;;;;5.00;2.90;;;29.80;52.40;;;;;;5004413;28;20038;-89
2022/08/11 09:01:13;;;;;;;5.97;3.08;;;30.00;52.90;;;;;;4997249;28;20378;-89
2022/08/11 09:03:45;;;;;;;2.65;2.45;;;30.20;52.50;;;;;;4965220;28;20041;-89
2022/08/11 09:06:16;;;;;;;9.00;3.38;;;30.20;51.70;;;;;;4993321;28;20060;-90
2022/08/11 09:08:43;;;;;;;4.45;2.83;;;30.40;51.50;;;;;;5006055;28;20147;-88
2022/08/11 09:13:53;;;;;;;5.30;2.70;;;30.70;50.90;;;;;;5012634;28;20036;-89
2022/08/11 09:16:19;;;;;;;2.75;2.50;;;31.10;50.80;;;;;;4981186;28;20021;-89
2022/08/11 09:18:46;;;;;;;4.70;2.30;;;31.00;51.20;;;;;;5012260;28;20069;-90
2022/08/11 09:21:13;;;;;;;9.75;2.67;;;31.00;51.80;;;;;;5018535;28;20025;-89
2022/08/11 09:26:58;;;;;;;4.55;2.38;;;31.30;50.90;;;;;;5013026;28;20095;-89
2022/08/11 09:29:26;;;;;;;5.45;2.70;;;31.50;50.80;;;;;;4980350;28;20033;-89
2022/08/11 09:31:52;;;;;;;4.95;3.00;;;31.80;50.40;;;;;;4988958;28;20040;-89
2022/08/11 09:34:17;;;;;;;7.65;2.95;;;32.00;49.40;;;;;;5003217;28;20401;-88
2022/08/11 09:42:19;;;;;;;5.45;2.88;;;32.20;48.50;;;;;;5024227;28;20037;-88
2022/08/11 09:44:52;;;;;;;2.72;2.47;;;32.30;49.00;;;;;;5011814;28;20042;-88
2022/08/11 09:47:56;;;;;;;6.43;3.08;;;32.50;48.70;;;;;;4993254;28;20036;-90
2022/08/11 09:50:22;;;;;;;3.97;2.70;;;33.00;48.30;;;;;;5006273;28;20465;-89
2022/08/11 09:52:53;;;;;;;4.00;2.88;;;32.90;48.10;;;;;;5005011;28;20125;-89
2022/08/11 09:55:18;;;;;;;4.45;2.33;;;33.20;47.60;;;;;;4976419;28;20560;-88
2022/08/11 10:00:39;;;;;;;4.90;2.67;;;33.20;47.00;;;;;;5027346;28;20147;-89
2022/08/11 10:03:24;;;;;;;5.28;3.10;;;33.60;46.50;;;;;;5008631;28;20038;-89
2022/08/11 10:08:41;;;;;;;5.30;2.88;;;33.60;44.40;;;;;;5025822;28;20060;-89
2022/08/11 10:11:10;;;;;;;5.10;2.70;;;33.60;42.80;;;;;;5011171;28;20065;-89
2022/08/11 10:15:32;;;;;;;5.38;2.00;;;33.60;43.40;;;;;;5006523;28;20095;-88
2022/08/11 10:16:25;;;;;;;4.90;2.65;;;33.70;44.60;;;;;;4989245;28;20068;-89
2022/08/11 10:18:51;;;;;;;7.13;3.30;;;34.00;42.40;;;;;;4996691;28;21148;-88
2022/08/11 10:21:35;;;;;;;3.90;2.30;;;34.30;42.00;;;;;;4991691;28;20029;-88
2022/08/11 10:26:54;;;;;;;2.92;2.22;;;34.10;40.20;;;;;;5030080;28;20087;-88
2022/08/11 10:35:11;;;;;;;2.55;2.20;;;34.30;42.80;;;;;;5022472;28;20401;-90
2022/08/11 10:37:37;;;;;;;4.38;2.42;;;34.60;41.90;;;;;;5017110;28;20060;-89
2022/08/11 10:40:04;;;;;;;4.05;2.75;;;34.70;41.00;;;;;;4978556;28;20033;-90
2022/08/11 10:48:09;;;;;;;5.95;2.97;;;34.70;37.50;;;;;;5001415;28;20044;-89
2022/08/11 10:58:50;;;;;;;4.27;2.00;;;34.90;39.00;;;;;;5025484;28;20039;-89
2022/08/11 11:01:23;;;;;;;4.07;2.50;;;35.10;40.80;;;;;;5025809;28;20034;-89
2022/08/11 11:03:59;;;;;;;2.97;1.92;;;35.40;40.40;;;;;;4316183;28;10021482;-89
2022/08/11 11:06:47;;;;;;;2.83;2.50;;;35.50;40.30;;;;;;5018011;28;20576;-90
2022/08/11 11:09:21;;;;;;;3.85;2.30;;;35.50;40.50;;;;;;4999795;28;20030;-89
2022/08/11 11:17:55;;;;;;;7.13;2.63;;;35.60;39.20;;;;;;5023272;28;20129;-91
2022/08/11 11:20:39;;;;;;;2.58;2.38;;;35.60;38.90;;;;;;5024621;28;20469;-90
2022/08/11 11:23:46;;;;;;;5.00;2.75;;;35.90;40.10;;;;;;4937634;28;20034;-90
2022/08/11 11:26:27;;;;;;;5.03;2.50;;;36.30;38.70;;;;;;4971178;28;20376;-91
2022/08/11 11:29:28;;;;;;;7.53;2.70;;;36.50;37.60;;;;;;5028463;28;20456;-89
2022/08/11 11:32:15;;;;;;;4.82;2.35;;;36.90;36.80;;;;;;5020918;28;20065;-89
2022/08/11 11:34:58;;;;;;;5.53;2.67;;;38.00;36.60;;;;;;5031504;28;20037;-89
2022/08/11 11:37:23;;;;;;;4.82;2.53;;;37.00;35.70;;;;;;4992283;28;20832;-89
2022/08/11 11:39:50;;;;;;;6.72;2.53;;;36.90;37.20;;;;;;5004672;28;20034;-89
2022/08/11 11:42:16;;;;;;;6.80;2.63;;;37.00;37.30;;;;;;4998036;28;20771;-90
2022/08/11 11:44:43;;;;;;;8.25;2.80;;;37.10;36.90;;;;;;4983351;28;20030;-90
2022/08/11 11:47:10;;;;;;;2.80;2.47;;;36.90;36.50;;;;;;4948430;28;20060;-90
2022/08/11 11:49:42;;;;;;;6.07;2.85;;;36.70;34.80;;;;;;4992407;28;20113;-89
2022/08/11 11:52:17;;;;;;;2.75;2.30;;;36.70;36.20;;;;;;5024139;28;20033;-89
2022/08/11 11:54:49;;;;;;;2.38;2.17;;;36.90;38.20;;;;;;5013470;28;20049;-88
2022/08/11 12:02:58;;;;;;;6.95;2.70;;;37.20;36.40;;;;;;5028605;28;20046;-92
2022/08/11 12:05:24;;;;;;;6.25;3.10;;;37.20;37.40;;;;;;5006933;28;20037;-89
2022/08/11 12:08:14;;;;;;;4.82;2.78;;;37.40;36.00;;;;;;4991396;28;20030;-90
2022/08/11 12:13:39;;;;;;;4.68;3.05;;;37.40;36.00;;;;;;5026465;28;20120;-90
2022/08/11 12:13:49;;;;;;;6.88;2.70;;;37.60;35.90;;;;;;5029513;28;20775;-89
2022/08/11 12:16:15;;;;;;;2.50;2.20;;;37.90;36.70;;;;;;5013750;28;20425;-91
2022/08/11 12:18:42;;;;;;;5.10;2.67;;;38.20;36.30;;;;;;5013452;28;20037;-89
2022/08/11 12:21:08;;;;;;;7.07;2.65;;;37.80;34.80;;;;;;5015028;28;20025;-90
2022/08/11 12:29:10;;;;;;;4.75;2.80;;;37.60;33.20;;;;;;5020098;28;20483;-92
2022/08/11 12:31:38;;;;;;;3.25;2.60;;;37.60;34.20;;;;;;5003011;28;20041;-91
2022/08/11 12:34:12;;;;;;;6.75;2.55;;;37.60;35.10;;;;;;5016351;28;20103;-90
2022/08/11 12:37:02;;;;;;;7.22;2.63;;;37.70;36.10;;;;;;4998933;28;20041;-91
2022/08/11 12:53:31;;;;;;;4.45;2.30;;;38.30;34.20;;;;;;4994595;28;20042;-90
2022/08/11 12:58:52;;;;;;;10.38;2.60;;;38.60;34.70;;;;;;4997754;28;20037;-90
2022/08/11 13:06:53;;;;;;;8.35;3.22;;;38.30;33.40;;;;;;5010745;28;20401;-90
2022/08/11 13:09:18;;;;;;;5.10;2.65;;;38.30;33.70;;;;;;4985008;28;20045;-91
2022/08/11 13:14:28;;;;;;;4.00;2.20;;;38.40;33.80;;;;;;5015475;28;20040;-90
2022/08/11 13:19:42;;;;;;;7.22;2.22;;;38.50;32.10;;;;;;5014945;28;20342;-90
2022/08/11 13:22:08;;;;;;;9.05;2.22;;;38.40;32.00;;;;;;4973794;28;20029;-88
2022/08/11 13:24:39;;;;;;;6.07;2.85;;;38.50;32.90;;;;;;4996591;28;20493;-91
2022/08/11 13:27:05;;;;;;;8.27;2.72;;;38.50;32.60;;;;;;5013975;28;20400;-89
2022/08/11 13:29:30;;;;;;;5.97;2.40;;;38.50;31.80;;;;;;5008953;28;20112;-89
2022/08/11 13:32:04;;;;;;;7.57;2.78;;;38.40;31.20;;;;;;4990306;28;20037;-87
2022/08/11 13:34:33;;;;;;;4.97;2.60;;;38.40;32.70;;;;;;5014989;28;20413;-88
2022/08/11 13:37:00;;;;;;;7.10;2.35;;;38.30;32.00;;;;;;5029303;28;20045;-88
2022/08/11 13:39:29;;;;;;;9.52;2.78;;;38.40;32.70;;;;;;5017541;28;20037;-90
2022/08/11 13:41:55;;;;;;;5.20;2.42;;;38.50;32.30;;;;;;4996436;28;20029;-89
2022/08/11 13:44:21;;;;;;;5.53;2.88;;;38.40;32.30;;;;;;5006945;28;20033;-90
2022/08/11 13:46:49;;;;;;;3.45;2.40;;;38.80;33.30;;;;;;4995184;28;20113;-89
2022/08/11 13:49:15;;;;;;;5.75;2.40;;;39.00;33.00;;;;;;5011225;28;20057;-90
2022/08/11 13:51:41;;;;;;;3.95;2.50;;;38.80;32.10;;;;;;5011400;28;20037;-88
2022/08/11 13:54:17;;;;;;;6.68;2.60;;;38.70;32.40;;;;;;5016287;28;20030;-89
2022/08/11 13:56:45;;;;;;;2.85;2.33;;;38.90;32.90;;;;;;5014934;28;20033;-89
2022/08/11 13:59:14;;;;;;;3.38;2.65;;;38.80;31.30;;;;;;4991150;28;20112;-90
2022/08/11 14:01:47;;;;;;;6.75;2.35;;;38.70;31.50;;;;;;5001512;28;20090;-90
2022/08/11 14:04:42;;;;;;;3.83;2.42;;;38.80;31.80;;;;;;5011966;28;20038;-90
2022/08/11 14:07:09;;;;;;;4.55;3.08;;;38.70;31.50;;;;;;4989397;28;20033;-88
2022/08/11 14:09:36;;;;;;;9.57;2.63;;;38.70;31.20;;;;;;5028433;28;20452;-90
2022/08/11 14:15:09;;;;;;;3.55;2.60;;;38.50;30.80;;;;;;5032164;28;20036;-91
2022/08/11 14:17:42;;;;;;;3.08;2.60;;;38.50;31.30;;;;;;5032116;28;20097;-89
2022/08/11 14:20:10;;;;;;;3.38;2.60;;;38.40;30.50;;;;;;4997828;28;20033;-92
2022/08/11 14:22:45;;;;;;;3.35;2.22;;;38.50;31.40;;;;;;4997555;28;20099;-89
2022/08/11 14:25:13;;;;;;;;;;;38.50;32.10;;;;;;4999281;28;20671;-90
2022/08/11 14:27:48;;;;;;;4.15;2.50;;;38.60;32.20;;;;;;5005833;28;20284;-89
2022/08/11 14:30:54;;;;;;;13.10;2.90;;;38.70;32.10;;;;;;5012330;28;20609;-91
2022/08/11 14:32:59;;;;;;;2.47;2.20;;;39.10;31.50;;;;;;5016366;28;20034;-90
2022/08/11 14:35:28;;;;;;;3.17;2.42;;;38.90;30.90;;;;;;5009743;28;20034;-90
2022/08/11 14:37:56;;;;;;;4.95;3.42;;;38.90;30.00;;;;;;5007753;28;20045;-90
2022/08/11 14:48:41;;;;;;;6.72;2.63;;;38.70;29.90;;;;;;5037354;28;20062;-91
2022/08/11 14:51:06;;;;;;;2.40;2.20;;;38.70;30.00;;;;;;5001576;28;20103;-90
2022/08/11 14:53:35;;;;;;;3.85;2.60;;;38.70;30.80;;;;;;5004210;28;20022;-91
2022/08/11 14:58:46;;;;;;;4.68;2.38;;;38.70;30.40;;;;;;5022200;28;20041;-88
2022/08/11 15:03:59;;;;;;;2.90;2.47;;;38.60;29.40;;;;;;5026851;28;20129;-90
2022/08/11 15:06:24;;;;;;;6.97;2.10;;;38.50;30.00;;;;;;5012314;28;20026;-91
2022/08/11 15:08:53;;;;;;;4.50;2.47;;;38.60;30.20;;;;;;5014792;28;20121;-90
2022/08/11 15:14:08;;;;;;;4.80;2.85;;;38.60;30.70;;;;;;5007416;28;20560;-92
2022/08/11 15:24:18;;;;;;;5.05;2.65;;;38.60;29.90;;;;;;4930405;28;20471;-90
2022/08/11 15:25:11;;;;;;;2.67;2.47;;;38.50;29.80;;;;;;5013121;28;20044;-90
2022/08/11 15:38:38;;;;;;;9.07;2.90;;;38.40;29.60;;;;;;5015993;28;20109;-90
2022/08/11 15:46:46;;;;;;;6.47;2.67;;;38.30;29.40;;;;;;5007978;28;20120;-91
2022/08/11 15:49:23;;;;;;;6.18;2.78;;;38.30;29.80;;;;;;5000301;28;20045;-92
2022/08/11 15:52:10;;;;;;;4.93;2.45;;;38.20;28.70;;;;;;4978727;28;20129;-92
2022/08/11 15:54:45;;;;;;;3.70;3.28;;;38.10;29.70;;;;;;5015115;28;20038;-92
2022/08/11 16:04:09;;;;;;;4.15;2.72;;;38.00;29.30;;;;;;5034412;28;20083;-93
2022/08/11 16:06:06;;;;;;;4.30;2.22;;;37.90;29.80;;;;;;4995046;28;20041;-91
2022/08/11 16:08:32;;;;;;;7.25;2.20;;;38.00;29.80;;;;;;5005751;28;20418;-91
2022/08/11 16:10:58;;;;;;;3.78;2.70;;;37.80;29.10;;;;;;4995537;28;20043;-90
2022/08/11 16:18:50;;;;;;;4.35;2.22;;;38.00;29.70;;;;;;5017206;28;20080;-91
2022/08/11 16:21:17;;;;;;;4.32;2.30;;;38.00;29.80;;;;;;5031869;28;20030;-89
2022/08/11 16:23:53;;;;;;;8.15;2.75;;;37.90;29.40;;;;;;5026271;28;20068;-89
2022/08/11 16:26:23;;;;;;;6.03;2.67;;;37.90;29.90;;;;;;5036770;28;20025;-92
2022/08/11 16:28:56;;;;;;;2.80;2.60;;;37.80;29.80;;;;;;5012520;28;20080;-91
2022/08/11 16:31:22;;;;;;;2.97;2.78;;;37.70;29.50;;;;;;5001257;28;20037;-90
2022/08/11 16:33:48;;;;;;;5.22;2.67;;;37.80;29.80;;;;;;5007078;28;20043;-90
2022/08/11 16:39:01;;;;;;;3.08;2.35;;;37.60;29.90;;;;;;5008080;28;20044;-89
2022/08/11 16:47:42;;;;;;;7.68;2.75;;;37.50;29.30;;;;;;5026296;28;20041;-90
2022/08/11 16:50:09;;;;;;;3.85;2.50;;;37.50;29.70;;;;;;5023800;28;20120;-93
2022/08/11 16:52:35;;;;;;;4.65;2.72;;;37.30;29.60;;;;;;5020570;28;20040;-89
2022/08/11 16:55:03;;;;;;;3.10;2.75;;;37.30;30.00;;;;;;5035719;28;20030;-89
2022/08/11 17:00:15;;;;;;;7.05;2.40;;;37.30;30.00;;;;;;5024678;28;20036;-90
2022/08/11 17:13:55;;;;;;;8.57;2.93;;;37.00;30.20;;;;;;5034420;28;20068;-91
2022/08/11 17:16:35;;;;;;;4.80;2.80;;;36.90;30.20;;;;;;5006680;28;20396;-90
2022/08/11 17:19:10;;;;;;;4.72;2.60;;;36.80;30.10;;;;;;4993516;28;20124;-89
2022/08/11 17:24:26;;;;;;;5.38;2.60;;;36.70;30.00;;;;;;5007658;28;20072;-90
2022/08/11 17:26:56;;;;;;;4.43;2.40;;;36.60;30.00;;;;;;5011069;28;20484;-89
2022/08/11 17:29:39;;;;;;;7.82;2.40;;;36.40;30.40;;;;;;5010270;28;20125;-90
2022/08/11 17:35:29;;;;;;;4.25;2.70;;;36.30;30.50;;;;;;4941016;28;20038;-90
2022/08/11 17:38:02;;;;;;;3.55;3.22;;;36.20;30.50;;;;;;4998583;28;20037;-90
2022/08/11 17:40:28;;;;;;;5.28;2.72;;;36.20;30.50;;;;;;5015130;28;20048;-89
2022/08/11 17:48:35;;;;;;;3.70;2.50;;;35.70;30.10;;;;;;5015259;28;20044;-91
2022/08/11 17:51:09;;;;;;;5.57;2.90;;;35.60;30.40;;;;;;5012580;28;20092;-90
2022/08/11 17:59:54;;;;;;;6.80;2.78;;;35.30;30.30;;;;;;5053013;28;20032;-90
2022/08/11 18:05:13;;;;;;;3.72;2.60;;;35.00;30.50;;;;;;5004376;28;20051;-89
